Terminal Aerodrome Forecast
Issued by NWS Quad Cities IA IL

Home | Current Version | Previous Version | Text Only | Print | Product List | Glossary On
Versions: 1 2 3 4 5 6 7 8 9 10 11 12 13 14 15 16 17 18 19 20 21 22 23 24
852
FTUS43 KDVN 230059 AAA
TAFDBQ
TAF AMD
KDBQ 230059Z 2301/2324 34011KT 5SM BR BKN005 OVC025
     FM230400 33006KT 3SM BR OVC003
     FM231600 31008KT P6SM BKN012=

USA.gov is the U.S. government's official web portal to all federal, state and local government web resources and services.